KLEB 230755Z 2308/2406 32011KT P6SM FEW015 BKN035
FM231400 33014G22KT P6SM SCT025 BKN040
FM240000 32008KT P6SM SCT040
From batch tds/tafs/production/2022/9/23/h07_m59_tafs.cache.xml
Issued (9 days ago)
Forecasts
2308/2314 32011KT P6SM FEW1500 BKN3500

---
fcst_time_to: '2022-09-23T14:00:00Z'
sky_condition:
- - sky_cover: FEW
    cloud_base_ft_agl: '1500'
- - sky_cover: BKN
    cloud_base_ft_agl: '3500'
wind_speed_kt: '11'
fcst_time_from: '2022-09-23T08:00:00Z'
wind_dir_degrees: '320'
visibility_statute_mi: '6.21'

FM231400 33014G22KT P6SM SCT2500 BKN4000

---
fcst_time_to: '2022-09-24T00:00:00Z'
wind_gust_kt: '22'
sky_condition:
- - sky_cover: SCT
    cloud_base_ft_agl: '2500'
- - sky_cover: BKN
    cloud_base_ft_agl: '4000'
wind_speed_kt: '14'
fcst_time_from: '2022-09-23T14:00:00Z'
change_indicator: FM
wind_dir_degrees: '330'
visibility_statute_mi: '6.21'

FM240000 32008KT P6SM SCT4000

---
fcst_time_to: '2022-09-24T06:00:00Z'
sky_condition:
- sky_cover: SCT
  cloud_base_ft_agl: '4000'
wind_speed_kt: '8'
fcst_time_from: '2022-09-24T00:00:00Z'
change_indicator: FM
wind_dir_degrees: '320'
visibility_statute_mi: '6.21'

talk